Time;durP1;ratioP1;P1;durP2;ratioP2;P2;SDS_P1;SDS_P2;PMS_P1;PMS_P2;Temp;Humidity;BMP_temperature;BMP_pressure;BME280_temperature;BME280_humidity;BME280_pressure;Samples;Min_cycle;Max_cycle;Signal;HPM_P1;HPM_P2
2023/06/20 00:02:39;;;;;;;11.45;7.80;;;;;;;21.56;58.80;101028.91;5110346;28;20052;-78
2023/06/20 00:05:26;;;;;;;10.02;7.65;;;;;;;21.51;58.70;101031.09;5109702;28;20600;-77
2023/06/20 00:08:12;;;;;;;8.40;7.28;;;;;;;21.52;59.01;101030.09;5102111;28;20127;-77
2023/06/20 00:10:57;;;;;;;10.02;7.40;;;;;;;21.49;58.76;101022.31;5094393;28;20044;-77
2023/06/20 00:13:45;;;;;;;8.32;6.93;;;;;;;21.47;58.94;101022.41;5109333;28;20489;-80
2023/06/20 00:16:31;;;;;;;11.50;7.45;;;;;;;21.45;59.18;101019.00;5104106;28;20044;-79
2023/06/20 00:19:17;;;;;;;10.07;7.30;;;;;;;21.44;59.04;101019.09;5103530;28;20098;-80
2023/06/20 00:22:02;;;;;;;12.13;7.43;;;;;;;21.44;59.05;101019.97;5111850;28;20040;-78
2023/06/20 00:24:48;;;;;;;10.27;7.68;;;;;;;21.42;58.88;101016.53;5090273;28;20044;-78
2023/06/20 00:27:33;;;;;;;8.77;6.78;;;;;;;21.41;58.91;101018.38;5090660;28;20060;-79
2023/06/20 00:30:18;;;;;;;9.63;6.95;;;;;;;21.39;58.95;101024.78;5100918;28;20044;-80
2023/06/20 00:33:04;;;;;;;9.48;6.82;;;;;;;21.39;58.86;101016.75;5097892;28;20044;-79
2023/06/20 00:35:49;;;;;;;10.35;7.28;;;;;;;21.41;58.95;101014.81;5106803;28;20057;-79
2023/06/20 00:38:36;;;;;;;9.05;6.75;;;;;;;21.45;58.52;101015.44;5104135;28;20548;-79
2023/06/20 00:41:23;;;;;;;10.10;7.38;;;;;;;21.45;58.54;101010.09;5105966;28;20037;-79
2023/06/20 00:44:09;;;;;;;9.85;6.85;;;;;;;21.39;58.44;101008.72;5100809;28;20040;-79
2023/06/20 00:46:55;;;;;;;11.00;6.97;;;;;;;21.37;58.69;101008.84;5106696;28;20115;-79
2023/06/20 00:49:41;;;;;;;10.13;6.93;;;;;;;21.35;58.54;101015.28;5099098;28;20041;-79
2023/06/20 00:52:26;;;;;;;11.18;7.30;;;;;;;21.31;58.67;101011.09;5110682;28;20056;-80
2023/06/20 00:55:12;;;;;;;9.43;7.32;;;;;;;21.32;58.63;101004.78;5107874;28;20043;-79
2023/06/20 00:58:00;;;;;;;10.63;7.25;;;;;;;21.26;58.95;101006.06;5104850;28;20099;-78
2023/06/20 01:00:47;;;;;;;12.25;7.35;;;;;;;21.20;58.92;101001.19;5090770;28;20874;-79
2023/06/20 01:03:37;;;;;;;8.05;6.68;;;;;;;21.22;58.84;101000.09;5107861;28;20516;-78
2023/06/20 01:06:43;;;;;;;10.68;7.38;;;;;;;21.20;58.92;100996.66;5098941;28;20040;-79
2023/06/20 01:10:05;;;;;;;11.98;7.50;;;;;;;21.18;59.14;100997.75;5103226;28;20048;-78
2023/06/20 01:13:24;;;;;;;9.35;7.03;;;;;;;21.15;58.86;100981.88;5094200;28;20044;-78
2023/06/20 01:16:42;;;;;;;9.52;6.90;;;;;;;21.15;59.00;100988.09;5088225;28;20052;-78
2023/06/20 01:19:49;;;;;;;10.48;7.75;;;;;;;21.19;58.62;100986.91;5101562;28;20131;-79
2023/06/20 01:22:51;;;;;;;8.20;7.00;;;;;;;21.22;58.67;100985.81;5099442;28;20052;-78
2023/06/20 01:26:03;;;;;;;9.43;7.20;;;;;;;21.20;58.58;100985.94;5102783;28;20562;-78
2023/06/20 01:29:02;;;;;;;10.25;7.03;;;;;;;21.14;58.66;100982.84;5097923;28;20052;-79
2023/06/20 01:31:55;;;;;;;10.25;7.07;;;;;;;21.14;58.68;100982.84;5105929;28;20056;-79
2023/06/20 01:34:54;;;;;;;8.80;6.38;;;;;;;21.14;58.85;100980.16;5104821;28;20115;-79
2023/06/20 01:37:43;;;;;;;8.80;6.70;;;;;;;21.13;58.49;100984.69;5099279;28;20102;-79
2023/06/20 01:40:33;;;;;;;9.50;7.05;;;;;;;21.16;58.36;100984.47;5103137;28;20068;-80
2023/06/20 01:43:22;;;;;;;8.95;6.80;;;;;;;21.16;58.57;100980.91;5099463;27;20319;-80
2023/06/20 01:46:10;;;;;;;9.02;6.80;;;;;;;21.14;58.51;100986.41;5102815;28;20048;-80
2023/06/20 01:48:59;;;;;;;10.07;6.72;;;;;;;21.14;58.38;100980.16;5100323;28;20043;-80
2023/06/20 01:51:47;;;;;;;8.60;6.72;;;;;;;21.11;58.48;100975.88;5092841;28;20048;-78
2023/06/20 01:54:34;;;;;;;7.97;6.68;;;;;;;21.14;58.05;100969.44;5077858;28;20481;-79
2023/06/20 01:57:21;;;;;;;10.82;6.65;;;;;;;21.13;58.50;100968.59;5090190;28;20540;-78
2023/06/20 02:00:11;;;;;;;7.75;6.32;;;;;;;21.15;58.10;100966.66;5104584;27;20139;-78
2023/06/20 02:03:04;;;;;;;10.70;7.00;;;;;;;21.14;58.33;100967.63;5100590;27;20052;-78
2023/06/20 02:05:53;;;;;;;8.57;6.57;;;;;;;21.10;58.41;100971.50;5075513;28;20048;-78
2023/06/20 02:08:40;;;;;;;9.93;6.72;;;;;;;21.10;58.07;100961.66;5093226;28;20099;-78
2023/06/20 02:11:27;;;;;;;10.57;6.68;;;;;;;21.07;58.29;100966.34;5082372;28;20060;-79
2023/06/20 02:14:13;;;;;;;10.50;7.20;;;;;;;21.05;58.59;100963.78;5101116;27;20040;-79
2023/06/20 02:17:03;;;;;;;10.70;6.93;;;;;;;21.03;58.67;100959.50;5098066;28;20048;-79
2023/06/20 02:19:49;;;;;;;11.90;7.05;;;;;;;21.04;58.44;100958.56;5092106;28;20049;-79
2023/06/20 02:22:37;;;;;;;9.30;6.88;;;;;;;21.04;58.43;100955.88;5096017;28;20048;-79
2023/06/20 02:25:31;;;;;;;11.50;7.13;;;;;;;21.06;58.58;100961.97;5091545;28;20082;-79
2023/06/20 02:28:16;;;;;;;9.20;6.67;;;;;;;21.01;58.47;100953.41;5109055;28;20445;-78
2023/06/20 02:31:08;;;;;;;9.90;6.85;;;;;;;20.96;58.80;100947.53;5092964;28;20044;-78
2023/06/20 02:33:58;;;;;;;10.27;7.13;;;;;;;20.92;58.88;100945.06;5079142;28;20123;-78
2023/06/20 02:36:46;;;;;;;11.30;6.68;;;;;;;20.91;58.86;100950.53;5108294;28;20060;-77
2023/06/20 02:39:32;;;;;;;9.73;6.85;;;;;;;20.87;59.41;100947.22;5087062;28;20055;-78
2023/06/20 02:42:17;;;;;;;10.77;7.43;;;;;;;20.84;59.15;100946.59;5091959;28;20044;-79
2023/06/20 02:45:04;;;;;;;10.10;6.93;;;;;;;20.83;59.43;100943.06;5083568;28;20092;-78
2023/06/20 02:48:02;;;;;;;10.10;7.88;;;;;;;20.87;59.35;100936.50;5098707;28;20053;-79
2023/06/20 02:51:05;;;;;;;12.00;7.97;;;;;;;20.85;59.15;100937.59;5090776;28;20110;-78
2023/06/20 02:54:15;;;;;;;10.10;7.85;;;;;;;20.85;59.44;100940.25;5086938;28;20517;-79
2023/06/20 02:57:08;;;;;;;11.55;7.68;;;;;;;20.87;59.25;100944.53;5105734;28;20040;-79
2023/06/20 03:00:05;;;;;;;9.77;7.25;;;;;;;20.84;59.35;100939.41;5085511;28;20092;-79
2023/06/20 03:02:58;;;;;;;10.30;7.30;;;;;;;20.83;59.56;100935.03;5090815;28;20138;-81
2023/06/20 03:05:44;;;;;;;12.05;7.70;;;;;;;20.82;59.59;100945.84;5109180;28;20083;-78
2023/06/20 03:08:32;;;;;;;9.52;7.90;;;;;;;20.79;59.75;100946.91;5103525;27;20052;-77
2023/06/20 03:11:17;;;;;;;11.27;7.45;;;;;;;20.74;59.86;100947.25;5092481;28;20044;-77
2023/06/20 03:14:03;;;;;;;9.23;7.45;;;;;;;20.72;60.20;100957.19;5084657;28;20045;-78
2023/06/20 03:16:50;;;;;;;11.35;7.63;;;;;;;20.81;59.91;100953.03;5090842;28;20050;-77
2023/06/20 03:19:36;;;;;;;9.77;7.53;;;;;;;20.88;59.91;100948.09;5077907;28;20779;-78
2023/06/20 03:22:27;;;;;;;8.95;7.55;;;;;;;20.92;59.65;100954.91;5084026;28;20131;-78
2023/06/20 03:25:12;;;;;;;9.40;7.57;;;;;;;20.98;59.62;100948.25;5078203;28;20504;-78
2023/06/20 03:27:58;;;;;;;8.80;7.25;;;;;;;21.03;59.68;100949.63;5093828;28;20091;-78
2023/06/20 03:30:44;;;;;;;12.20;7.90;;;;;;;21.04;59.35;100939.78;5088699;28;20044;-78
2023/06/20 03:33:30;;;;;;;10.00;7.57;;;;;;;20.94;59.55;100936.91;5095132;28;20056;-78
2023/06/20 03:36:15;;;;;;;10.63;8.10;;;;;;;20.89;59.92;100939.09;5111756;28;20052;-78
2023/06/20 03:39:01;;;;;;;10.38;8.20;;;;;;;20.81;60.03;100934.28;5088070;28;20056;-78
2023/06/20 03:41:46;;;;;;;9.10;7.00;;;;;;;20.84;60.16;100946.59;5095705;28;20461;-79
2023/06/20 03:44:32;;;;;;;9.63;7.68;;;;;;;20.87;60.30;100941.00;5090019;28;20049;-79
2023/06/20 03:47:18;;;;;;;9.50;7.45;;;;;;;20.92;60.00;100938.84;5109251;28;20048;-79
2023/06/20 03:50:03;;;;;;;10.75;7.95;;;;;;;20.97;60.17;100933.16;5082362;28;20044;-79
2023/06/20 03:52:49;;;;;;;11.23;8.95;;;;;;;20.95;60.31;100938.63;5096751;28;20091;-80
2023/06/20 03:55:34;;;;;;;10.18;7.90;;;;;;;20.95;59.98;100933.28;5109905;28;20040;-78
2023/06/20 03:58:19;;;;;;;10.65;8.00;;;;;;;21.01;60.08;100937.31;5085954;28;20045;-78
2023/06/20 04:01:06;;;;;;;9.73;8.25;;;;;;;21.01;60.27;100940.00;5094950;28;20134;-78
2023/06/20 04:03:54;;;;;;;11.32;7.90;;;;;;;21.05;60.07;100939.66;5100299;28;20486;-79
2023/06/20 04:06:40;;;;;;;10.00;7.95;;;;;;;21.09;59.92;100937.63;5107593;27;20604;-79
2023/06/20 04:09:26;;;;;;;9.43;8.05;;;;;;;21.18;60.09;100949.50;5094235;28;20048;-74
2023/06/20 04:12:12;;;;;;;11.55;7.75;;;;;;;21.21;59.77;100951.97;5090769;28;20049;-76
2023/06/20 04:14:57;;;;;;;10.00;7.72;;;;;;;21.22;59.64;100956.31;5110533;28;20040;-76
2023/06/20 04:17:46;;;;;;;11.65;8.60;;;;;;;21.26;59.75;100961.34;5094377;28;20063;-77
2023/06/20 04:20:32;;;;;;;9.93;8.48;;;;;;;21.28;59.95;100965.75;5097758;28;20052;-76
2023/06/20 04:23:17;;;;;;;11.25;8.38;;;;;;;21.27;59.66;100972.94;5090988;28;20053;-80
2023/06/20 04:26:02;;;;;;;13.32;8.40;;;;;;;21.25;59.77;100964.16;5077769;28;20143;-78
2023/06/20 04:28:49;;;;;;;11.82;8.25;;;;;;;21.21;60.14;100962.69;5107442;28;20048;-78
2023/06/20 04:31:34;;;;;;;15.23;8.45;;;;;;;21.18;60.08;100961.06;5093956;28;20040;-77
2023/06/20 04:34:23;;;;;;;12.98;8.15;;;;;;;21.19;60.52;100970.81;5107694;28;20040;-76
2023/06/20 04:37:09;;;;;;;10.38;8.07;;;;;;;21.22;60.43;100962.56;5105366;27;20048;-78
2023/06/20 04:39:57;;;;;;;16.95;8.88;;;;;;;21.25;60.45;100965.03;5109592;27;20095;-78
2023/06/20 04:42:45;;;;;;;17.13;9.05;;;;;;;21.29;60.46;100962.97;5109814;27;20047;-79
2023/06/20 04:45:30;;;;;;;16.65;9.10;;;;;;;21.34;60.39;100973.34;5108006;27;20161;-79
2023/06/20 04:48:18;;;;;;;13.07;9.52;;;;;;;21.35;60.15;100970.53;5093848;28;20044;-79
2023/06/20 04:51:07;;;;;;;11.88;9.38;;;;;;;21.40;60.27;100959.47;5107245;28;20048;-76
2023/06/20 04:53:53;;;;;;;12.38;9.23;;;;;;;21.42;60.11;100963.75;5091753;28;20052;-77
2023/06/20 04:56:42;;;;;;;12.18;9.90;;;;;;;21.47;60.00;100960.72;5106839;28;20044;-76
2023/06/20 04:59:28;;;;;;;14.50;9.93;;;;;;;21.54;60.09;100958.44;5109018;28;20040;-76
2023/06/20 05:02:17;;;;;;;12.07;10.45;;;;;;;21.57;59.58;100956.38;5095046;28;20044;-77
2023/06/20 05:05:03;;;;;;;12.95;9.73;;;;;;;21.63;59.81;100959.63;5110932;27;20048;-76
2023/06/20 05:07:49;;;;;;;12.38;9.55;;;;;;;21.74;59.70;100956.09;5090107;27;20052;-73
2023/06/20 05:10:34;;;;;;;11.65;10.02;;;;;;;21.91;59.39;100952.16;5091572;28;20161;-73
2023/06/20 05:13:19;;;;;;;11.23;10.00;;;;;;;22.14;58.79;100956.59;5094821;28;20587;-73
2023/06/20 05:16:05;;;;;;;13.88;10.77;;;;;;;22.47;58.62;100956.78;5108852;28;20048;-73
2023/06/20 05:18:50;;;;;;;18.08;11.35;;;;;;;22.79;57.99;100959.59;5111854;28;20060;-74
2023/06/20 05:36:39;;;;;;;11.32;9.65;;;;;;;22.72;57.56;100949.47;4618914;27;20052;-73
2023/06/20 05:39:24;;;;;;;14.68;10.02;;;;;;;22.69;57.65;100953.25;5068359;28;20049;-74
2023/06/20 05:42:10;;;;;;;10.32;8.32;;;;;;;22.74;57.85;100948.38;5066088;28;20048;-73
2023/06/20 05:44:56;;;;;;;14.13;9.55;;;;;;;22.79;57.78;100950.69;5065546;28;20045;-74
2023/06/20 05:47:44;;;;;;;16.08;11.23;;;;;;;22.81;57.92;100946.03;5063204;28;20041;-74
2023/06/20 05:50:30;;;;;;;12.65;9.57;;;;;;;22.78;57.95;100952.53;5059239;28;20061;-74
2023/06/20 05:53:16;;;;;;;13.30;10.50;;;;;;;22.95;57.56;100951.13;5073765;28;20049;-74
2023/06/20 05:56:01;;;;;;;15.68;12.30;;;;;;;23.00;57.58;100941.84;5080426;28;20547;-73
2023/06/20 05:58:47;;;;;;;14.00;10.32;;;;;;;23.05;57.36;100937.81;5066809;28;20044;-73
2023/06/20 06:01:32;;;;;;;16.48;11.82;;;;;;;23.10;57.04;100938.28;5066776;28;20053;-75
2023/06/20 06:04:17;;;;;;;14.40;12.35;;;;;;;23.11;57.43;100937.31;5069273;28;20041;-73
2023/06/20 06:07:07;;;;;;;13.20;10.55;;;;;;;23.19;57.46;100936.72;5061129;28;20057;-73
2023/06/20 06:09:52;;;;;;;17.15;13.45;;;;;;;23.71;55.96;100936.88;5066320;28;20049;-73
2023/06/20 06:12:38;;;;;;;16.65;12.77;;;;;;;25.13;53.31;100925.53;5051316;28;20100;-74
2023/06/20 06:15:23;;;;;;;14.55;12.27;;;;;;;25.74;51.49;100934.38;5064618;28;20140;-74
2023/06/20 06:18:08;;;;;;;17.65;11.73;;;;;;;27.18;48.48;100927.88;5049691;28;20544;-74
2023/06/20 06:20:54;;;;;;;15.35;11.90;;;;;;;26.57;49.30;100924.78;5049373;28;20049;-74
2023/06/20 06:23:39;;;;;;;17.52;11.40;;;;;;;26.01;50.22;100927.38;5067121;28;20089;-74
2023/06/20 06:26:24;;;;;;;16.17;10.38;;;;;;;25.88;50.79;100924.97;5059903;28;20053;-73
2023/06/20 06:29:09;;;;;;;16.85;10.80;;;;;;;25.82;51.05;100941.75;5081479;28;20037;-71
2023/06/20 06:31:58;;;;;;;13.43;11.13;;;;;;;25.64;51.49;100947.88;5064237;28;20110;-71
2023/06/20 06:34:43;;;;;;;17.52;11.52;;;;;;;25.54;51.94;100953.25;5062649;28;20057;-72
2023/06/20 06:37:30;;;;;;;12.93;10.93;;;;;;;25.62;52.32;100949.84;5060371;28;20053;-71
2023/06/20 06:40:16;;;;;;;17.23;10.48;;;;;;;25.73;51.89;100946.19;5071193;28;20049;-71
2023/06/20 06:43:01;;;;;;;15.95;9.77;;;;;;;25.60;52.05;100951.84;5074964;28;20049;-72
2023/06/20 06:45:47;;;;;;;13.90;8.27;;;;;;;25.59;52.39;100944.72;5066721;28;20037;-71
2023/06/20 06:48:33;;;;;;;10.73;8.20;;;;;;;25.57;52.72;100949.44;5067596;28;20041;-71
2023/06/20 06:51:18;;;;;;;11.25;8.13;;;;;;;25.55;52.83;100949.56;5068253;28;20517;-72
2023/06/20 06:54:04;;;;;;;14.07;8.30;;;;;;;25.57;53.17;100946.75;5060047;28;20473;-71
2023/06/20 06:56:49;;;;;;;10.55;7.53;;;;;;;25.55;53.70;100946.03;5051590;28;20042;-72
2023/06/20 06:59:34;;;;;;;9.38;8.02;;;;;;;25.52;53.84;100947.19;5047666;28;20053;-72
2023/06/20 07:02:21;;;;;;;11.70;8.43;;;;;;;25.64;53.70;100945.16;5061002;28;20534;-72
2023/06/20 07:05:07;;;;;;;8.90;8.00;;;;;;;25.94;53.13;100945.16;5058432;28;20061;-71
2023/06/20 07:07:52;;;;;;;10.48;7.40;;;;;;;26.12;52.97;100939.88;5067969;28;20045;-72
2023/06/20 07:10:37;;;;;;;8.70;7.25;;;;;;;26.18;53.16;100942.84;5068640;28;20045;-72
2023/06/20 07:13:25;;;;;;;8.95;5.68;;;;;;;26.27;53.28;100943.81;5066821;28;20049;-71
2023/06/20 07:16:11;;;;;;;5.40;4.70;;;;;;;26.29;52.75;100943.66;5067818;28;20037;-72
2023/06/20 07:18:56;;;;;;;4.35;3.30;;;;;;;26.31;53.05;100947.06;5068004;28;20068;-72
2023/06/20 07:21:42;;;;;;;7.00;5.95;;;;;;;26.46;52.98;100944.75;5075371;28;20049;-72
2023/06/20 07:24:27;;;;;;;6.50;5.45;;;;;;;26.45;52.84;100940.34;5065303;28;20053;-72
2023/06/20 07:27:12;;;;;;;18.77;5.60;;;;;;;26.41;53.01;100944.31;5065374;28;20045;-71
2023/06/20 07:29:58;;;;;;;6.75;5.53;;;;;;;26.35;53.11;100935.00;5066013;28;20045;-72
2023/06/20 07:32:43;;;;;;;8.98;5.22;;;;;;;26.48;53.00;100931.94;5067538;28;20536;-71
2023/06/20 07:35:28;;;;;;;5.38;3.40;;;;;;;26.53;52.59;100921.53;5068028;28;20045;-71
2023/06/20 07:38:14;;;;;;;7.07;3.10;;;;;;;26.48;52.69;100919.28;5096722;28;20048;-72
2023/06/20 07:41:03;;;;;;;8.15;3.40;;;;;;;26.51;52.63;100918.97;5108830;28;20044;-72
2023/06/20 07:43:48;;;;;;;4.80;2.45;;;;;;;26.59;52.58;100925.47;5108295;28;20495;-72
2023/06/20 07:46:33;;;;;;;3.22;2.78;;;;;;;26.65;52.77;100923.03;5108196;28;20552;-71
2023/06/20 07:49:19;;;;;;;6.50;3.20;;;;;;;26.68;52.42;100919.19;5092980;28;20056;-72
2023/06/20 07:52:05;;;;;;;3.60;3.13;;;;;;;26.69;52.38;100915.47;5109208;28;20056;-71
2023/06/20 07:54:50;;;;;;;17.10;3.33;;;;;;;26.66;52.31;100913.94;5093263;28;20048;-72
2023/06/20 07:57:35;;;;;;;6.95;2.80;;;;;;;26.75;52.29;100911.31;5092725;28;20052;-72
2023/06/20 08:00:24;;;;;;;4.32;2.88;;;;;;;26.85;51.66;100906.72;5109119;28;20123;-71
2023/06/20 08:03:10;;;;;;;4.82;3.25;;;;;;;26.89;51.59;100902.75;5109530;28;20119;-72
2023/06/20 08:05:56;;;;;;;5.70;3.33;;;;;;;26.94;51.59;100899.56;5107811;28;20646;-72
2023/06/20 08:08:42;;;;;;;5.97;3.50;;;;;;;26.96;51.72;100898.41;5109166;28;20122;-72
2023/06/20 08:11:27;;;;;;;5.63;3.30;;;;;;;27.03;50.62;100887.84;5109173;27;20041;-72
2023/06/20 08:14:12;;;;;;;3.92;3.38;;;;;;;26.92;51.33;100886.19;5110516;28;20044;-72
2023/06/20 08:16:58;;;;;;;5.70;3.40;;;;;;;26.96;51.14;100893.00;5111789;28;20044;-72
2023/06/20 08:19:44;;;;;;;8.02;4.05;;;;;;;27.19;51.14;100891.69;5096120;28;20048;-71
2023/06/20 08:22:29;;;;;;;6.75;3.80;;;;;;;27.34;50.82;100895.56;5112073;28;20573;-72
2023/06/20 08:25:18;;;;;;;6.70;4.07;;;;;;;27.58;50.08;100888.69;5110318;28;20048;-73
2023/06/20 08:28:03;;;;;;;7.00;4.43;;;;;;;27.60;49.47;100889.38;5106661;28;20062;-72
2023/06/20 08:30:58;;;;;;;6.60;4.60;;;;;;;27.70;49.66;100886.59;5102962;27;20577;-72
2023/06/20 08:33:44;;;;;;;5.45;3.97;;;;;;;27.98;48.30;100884.56;5091670;28;20135;-72
2023/06/20 08:36:32;;;;;;;10.70;4.47;;;;;;;28.01;48.63;100894.25;5109710;28;20044;-72
2023/06/20 08:39:21;;;;;;;6.88;4.25;;;;;;;28.11;48.31;100899.56;5111450;28;20044;-72
2023/06/20 08:42:06;;;;;;;5.28;3.97;;;;;;;28.10;48.67;100898.72;5110954;28;20044;-72
2023/06/20 08:44:52;;;;;;;8.98;5.35;;;;;;;28.15;48.68;100895.53;5094922;28;20048;-72
2023/06/20 08:47:43;;;;;;;8.23;5.25;;;;;;;28.35;48.49;100888.00;5101624;28;20082;-71
2023/06/20 08:50:28;;;;;;;8.07;4.70;;;;;;;28.41;48.40;100894.63;5112380;28;20040;-72
2023/06/20 08:53:16;;;;;;;8.77;5.28;;;;;;;28.31;48.52;100892.91;5110433;28;20111;-72
2023/06/20 08:56:02;;;;;;;4.65;4.10;;;;;;;28.28;48.87;100900.50;5097112;28;20040;-71
2023/06/20 08:58:47;;;;;;;5.68;4.10;;;;;;;28.35;48.58;100890.72;5092926;28;20049;-72
2023/06/20 09:01:35;;;;;;;7.10;4.20;;;;;;;28.37;48.70;100888.69;5111722;28;20042;-72
2023/06/20 09:04:20;;;;;;;4.72;3.83;;;;;;;28.29;48.86;100886.78;5112807;28;20048;-73
2023/06/20 09:07:17;;;;;;;8.02;3.33;;;;;;;28.19;49.22;100900.47;5094545;28;20055;-71
2023/06/20 09:10:08;;;;;;;6.80;3.35;;;;;;;28.19;49.20;100899.59;5104287;28;20044;-72
2023/06/20 09:12:58;;;;;;;12.68;3.80;;;;;;;28.13;49.27;100890.25;5094850;28;20036;-72
2023/06/20 09:15:44;;;;;;;6.32;3.47;;;;;;;28.46;48.86;100898.56;5107977;28;20040;-72
2023/06/20 09:18:29;;;;;;;3.50;2.67;;;;;;;28.85;47.22;100897.22;5107871;28;20044;-72
2023/06/20 09:21:16;;;;;;;7.75;2.85;;;;;;;28.81;47.16;100893.13;5088381;28;20040;-72
2023/06/20 09:24:06;;;;;;;13.20;3.20;;;;;;;29.03;46.37;100877.22;5104137;27;20055;-72
2023/06/20 09:26:52;;;;;;;13.38;3.15;;;;;;;29.21;46.15;100866.22;5094629;28;20040;-72
2023/06/20 09:29:52;;;;;;;6.63;2.40;;;;;;;29.51;45.26;100877.47;5110648;28;20044;-72
2023/06/20 09:32:40;;;;;;;5.90;2.40;;;;;;;29.46;44.65;100883.41;5111271;28;20040;-72
2023/06/20 09:35:25;;;;;;;3.42;2.30;;;;;;;29.36;44.20;100880.00;5095158;28;20101;-72
2023/06/20 09:38:11;;;;;;;4.22;2.30;;;;;;;29.42;44.78;100901.91;5110974;28;20051;-72
2023/06/20 09:40:56;;;;;;;7.45;2.55;;;;;;;29.47;44.17;100886.94;5108951;28;20105;-71
2023/06/20 09:43:43;;;;;;;5.28;2.10;;;;;;;29.70;43.56;100885.25;5106897;28;20047;-72
2023/06/20 09:46:29;;;;;;;5.68;2.30;;;;;;;29.94;43.11;100877.25;5110659;28;20040;-72
2023/06/20 09:49:15;;;;;;;6.97;2.72;;;;;;;30.05;43.64;100874.19;5109701;28;20502;-72
2023/06/20 09:51:52;;;;;;;10.50;2.88;;;;;;;30.12;42.55;100880.59;5110592;28;20050;-72
2023/06/20 09:55:00;;;;;;;5.38;2.17;;;;;;;29.97;43.34;100895.94;5093023;28;20040;-72
2023/06/20 09:57:39;;;;;;;3.58;2.10;;;;;;;29.89;42.89;100891.31;5091692;28;20062;-72
2023/06/20 10:00:17;;;;;;;3.88;2.05;;;;;;;29.84;42.79;100888.28;5108967;28;20076;-72
2023/06/20 10:02:47;;;;;;;9.02;2.72;;;;;;;29.73;43.39;100890.34;5104772;28;20064;-72
2023/06/20 10:05:21;;;;;;;4.18;2.30;;;;;;;29.83;43.10;100892.88;5091277;28;20036;-72
2023/06/20 10:07:49;;;;;;;6.55;2.08;;;;;;;30.05;43.20;100887.75;5092557;28;20052;-70
2023/06/20 10:10:17;;;;;;;3.13;2.25;;;;;;;30.40;42.82;100890.19;5110691;28;20036;-73
2023/06/20 10:12:46;;;;;;;7.43;2.65;;;;;;;30.67;42.47;100884.34;5109464;28;20519;-72
2023/06/20 10:15:14;;;;;;;4.88;2.22;;;;;;;30.85;41.14;100891.38;5106913;27;20039;-71
2023/06/20 10:17:46;;;;;;;4.57;1.98;;;;;;;30.87;41.48;100883.03;5110322;27;20040;-72
2023/06/20 10:20:37;;;;;;;15.45;3.15;;;;;;;31.05;40.96;100883.56;5110677;28;20043;-71
2023/06/20 10:23:07;;;;;;;12.27;2.90;;;;;;;31.06;40.32;100879.81;5095672;28;20044;-72
2023/06/20 10:25:49;;;;;;;4.38;2.30;;;;;;;30.99;40.53;100873.44;5102364;28;20459;-71
2023/06/20 10:28:20;;;;;;;2.33;2.08;;;;;;;31.03;40.28;100872.03;5109643;27;20090;-73
2023/06/20 10:30:50;;;;;;;4.25;2.28;;;;;;;30.94;40.46;100870.38;5116847;27;20164;-71
2023/06/20 10:33:34;;;;;;;5.50;2.25;;;;;;;31.09;40.52;100874.03;5103543;27;20770;-71
2023/06/20 10:36:12;;;;;;;12.68;3.10;;;;;;;31.07;40.91;100867.09;5109878;27;20483;-71
2023/06/20 10:38:59;;;;;;;2.67;2.20;;;;;;;31.27;39.85;100870.19;5110259;28;20064;-72
2023/06/20 10:41:28;;;;;;;3.50;2.22;;;;;;;31.33;39.68;100866.75;5108249;28;20104;-73
2023/06/20 10:43:57;;;;;;;7.38;2.42;;;;;;;31.46;39.78;100866.13;5106518;28;20092;-71
2023/06/20 10:46:37;;;;;;;3.45;2.20;;;;;;;31.61;39.28;100866.16;5110156;28;20080;-71
2023/06/20 10:49:07;;;;;;;13.45;3.10;;;;;;;31.67;38.87;100865.41;5110393;28;20656;-72
2023/06/20 10:51:48;;;;;;;3.63;2.08;;;;;;;31.72;39.02;100860.28;5106612;28;20527;-71
2023/06/20 10:54:17;;;;;;;7.88;2.22;;;;;;;31.69;38.24;100849.75;5110310;28;20040;-73
2023/06/20 10:56:46;;;;;;;11.02;3.10;;;;;;;31.64;38.41;100846.72;5110072;28;20044;-71
2023/06/20 10:59:19;;;;;;;8.57;2.08;;;;;;;31.57;38.58;100834.84;5107670;28;20031;-71
2023/06/20 11:01:46;;;;;;;3.13;1.80;;;;;;;31.58;38.64;100842.00;5091719;28;20072;-71
2023/06/20 11:04:19;;;;;;;6.25;2.10;;;;;;;31.59;38.48;100838.25;5092532;28;20119;-71
2023/06/20 11:06:49;;;;;;;8.90;2.20;;;;;;;31.66;38.22;100841.06;5101751;28;20090;-72
2023/06/20 11:09:25;;;;;;;2.30;1.92;;;;;;;31.72;38.45;100835.75;5103507;27;20068;-71
2023/06/20 11:11:52;;;;;;;6.55;2.00;;;;;;;31.80;38.12;100829.34;5092897;28;20064;-71
2023/06/20 11:14:21;;;;;;;9.77;2.00;;;;;;;31.87;38.40;100827.59;5105343;28;20575;-72
2023/06/20 11:16:51;;;;;;;2.30;1.80;;;;;;;32.01;37.82;100816.84;5107735;28;20032;-71
2023/06/20 11:19:23;;;;;;;1.88;1.73;;;;;;;32.11;37.79;100813.84;5109569;28;20047;-73
2023/06/20 11:21:54;;;;;;;6.07;1.95;;;;;;;32.24;37.12;100813.19;5091914;27;20070;-73
2023/06/20 11:24:21;;;;;;;18.38;3.40;;;;;;;32.29;37.16;100810.75;5110236;28;20037;-73
2023/06/20 11:26:48;;;;;;;11.50;3.15;;;;;;;32.35;37.30;100810.00;5110298;28;20036;-71
2023/06/20 11:29:15;;;;;;;9.95;2.10;;;;;;;32.46;37.40;100808.63;5108802;28;20044;-71
2023/06/20 11:31:43;;;;;;;4.40;2.00;;;;;;;32.58;36.87;100811.72;5107266;28;20064;-71
2023/06/20 11:34:16;;;;;;;4.15;1.65;;;;;;;32.64;36.34;100806.34;5109972;28;20937;-71
2023/06/20 11:36:43;;;;;;;3.42;1.90;;;;;;;32.77;35.77;100800.16;5108841;28;20504;-72
2023/06/20 11:39:13;;;;;;;9.40;2.80;;;;;;;32.90;35.82;100802.22;5095304;27;20109;-73
2023/06/20 11:41:40;;;;;;;8.10;2.42;;;;;;;32.91;35.00;100800.34;5112399;27;20794;-72
2023/06/20 11:44:25;;;;;;;5.53;2.00;;;;;;;32.95;34.88;100805.22;5109185;27;20117;-73
2023/06/20 11:46:56;;;;;;;18.50;2.90;;;;;;;33.12;34.97;100808.50;5089421;28;20044;-71
2023/06/20 11:49:31;;;;;;;16.67;2.65;;;;;;;33.35;34.71;100810.19;5106404;27;20595;-72
2023/06/20 11:51:59;;;;;;;16.05;3.03;;;;;;;33.45;34.29;100804.38;5110300;28;20055;-71
2023/06/20 11:54:27;;;;;;;9.82;2.20;;;;;;;33.55;33.25;100790.34;5095285;28;20036;-71
2023/06/20 11:56:54;;;;;;;3.65;1.80;;;;;;;33.61;32.81;100786.84;5104723;27;20036;-71
2023/06/20 11:59:25;;;;;;;5.07;1.77;;;;;;;33.64;33.07;100786.41;5112782;28;20043;-72
2023/06/20 12:01:52;;;;;;;22.33;2.90;;;;;;;33.65;32.89;100787.28;5110993;28;20055;-72
2023/06/20 12:04:21;;;;;;;4.68;2.13;;;;;;;33.69;33.37;100794.00;5096038;28;20041;-71
2023/06/20 12:06:52;;;;;;;3.90;1.85;;;;;;;33.76;32.98;100789.47;5114944;27;20034;-72
2023/06/20 12:09:23;;;;;;;12.95;2.10;;;;;;;33.80;33.00;100798.09;5109334;28;20048;-71
2023/06/20 12:11:57;;;;;;;7.07;2.03;;;;;;;33.90;32.54;100779.47;5086075;28;20072;-72
2023/06/20 12:14:25;;;;;;;2.10;1.48;;;;;;;33.95;32.36;100787.88;5111306;27;20044;-71
2023/06/20 12:16:53;;;;;;;6.63;1.77;;;;;;;33.90;32.33;100790.41;5094069;28;20059;-71
2023/06/20 12:19:20;;;;;;;41.83;2.65;;;;;;;33.91;32.21;100784.72;5107400;28;20043;-71
2023/06/20 12:21:49;;;;;;;5.88;1.73;;;;;;;33.94;32.12;100782.63;5104458;28;20543;-71
2023/06/20 12:24:16;;;;;;;15.43;4.38;;;;;;;34.03;31.90;100782.28;5109452;27;20032;-72
2023/06/20 12:26:46;;;;;;;5.60;1.50;;;;;;;34.15;31.26;100787.13;5113291;27;20044;-72
2023/06/20 12:29:14;;;;;;;3.28;1.70;;;;;;;34.22;30.83;100790.75;5112553;27;20036;-71
2023/06/20 12:31:41;;;;;;;4.63;1.80;;;;;;;34.24;30.57;100779.59;5108866;27;20710;-71
2023/06/20 12:34:08;;;;;;;15.70;2.17;;;;;;;34.32;31.31;100777.53;5111472;27;20098;-72
2023/06/20 12:36:35;;;;;;;3.40;1.70;;;;;;;34.44;31.10;100782.44;5110137;28;20040;-71
2023/06/20 12:39:04;;;;;;;7.75;1.58;;;;;;;34.40;30.52;100771.03;5111134;28;20496;-71
2023/06/20 12:41:35;;;;;;;3.55;1.60;;;;;;;34.37;30.60;100772.28;5110797;28;20060;-73
2023/06/20 12:44:03;;;;;;;7.63;1.70;;;;;;;34.44;30.47;100777.78;5111219;28;20091;-73
2023/06/20 12:46:30;;;;;;;15.25;2.50;;;;;;;34.46;29.98;100772.09;5111424;27;20043;-72
2023/06/20 12:48:59;;;;;;;4.80;1.55;;;;;;;34.46;30.09;100780.31;5111452;27;20097;-71
2023/06/20 12:51:27;;;;;;;3.75;1.60;;;;;;;34.62;30.52;100769.00;5111629;27;20037;-71
2023/06/20 12:53:54;;;;;;;5.07;2.00;;;;;;;34.82;29.86;100770.91;5110704;27;20801;-71